• Join FlightAware (Why Join?)
  • Login
  • US Flag 
09:13PM EDT


 

Airport Tracker/Info


-or-


 

Live Flight TrackerFlight Track Log ✈ EJA831 ✈ 01-Oct-2013 ✈ KLAS - KSLC

Flight Track Log - Related Links

Times and Time Zones

All times are in EDT time to prevent confusion due to time zone crossing. See the EJA831 flight status page for this flight to view local times or setup timezone preferences in your user account.

Time Position Orientation Groundspeed Altitude Reporting Facility
EDT Latitude Longitude Course Direction KTS MPH feet Rate Location/Type
02:05PM 36.0753 -115.1550 271° West 165 190 3,400  Level Los Angeles Center
02:06PM 36.0758 -115.2161 271° West 223 257 6,000 3,240 Climbing Los Angeles Center
02:06PM 36.0764 -115.2483 271° West 227 261 7,700 3,660 Climbing Los Angeles Center
02:07PM 36.1308 -115.2931 326° Northwest 255 293 11,700 3,240 Climbing Los Angeles Center
02:08PM 36.1836 -115.2225 47° Northeast 290 334 14,400 2,460 Climbing Los Angeles Center
02:09PM 36.1972 -115.1108 81° East 327 376 16,800 2,520 Climbing Los Angeles Center
02:10PM 36.1975 -114.9658 90° East 349 402 19,700 2,520 Climbing Los Angeles Center
02:11PM 36.1989 -114.8414 89° East 360 414 22,100 2,220 Climbing Los Angeles Center
02:12PM 36.2489 -114.7339 60° Northeast 381 438 24,400 2,280 Climbing Los Angeles Center
02:13PM 36.3331 -114.6547 37° Northeast 383 441 26,900 1,740 Climbing Los Angeles Center
02:14PM 36.4175 -114.5744 37° Northeast 382 440 28,000 960 Climbing Los Angeles Center
02:16PM 36.5281 -114.4686 38° Northeast 406 467 29,000 480 Climbing Los Angeles Center
02:17PM 36.6308 -114.3869 33° Northeast 432 497 29,000  Level Los Angeles Center
02:18PM 36.7358 -114.3072 31° Northeast 440 506 29,000  Level Los Angeles Center
02:19PM 36.8403 -114.2250 32° Northeast 442 509 29,000  Level Los Angeles Center
02:20PM 36.9439 -114.1453 32° Northeast 445 512 29,000  Level Los Angeles Center
02:21PM 37.0672 -114.0461 33° Northeast 449 517 29,000  Level Los Angeles Center
02:22PM 37.1706 -113.9656 32° Northeast 443 510 29,000  Level Los Angeles Center
02:23PM 37.2736 -113.8853 32° Northeast 439 505 29,000  Level Los Angeles Center
02:24PM 37.3800 -113.8033 31° Northeast 439 505 29,000  Level Los Angeles Center
02:25PM 37.4836 -113.7219 32° Northeast 439 505 29,000  Level Los Angeles Center
02:26PM 37.5864 -113.6397 32° Northeast 438 504 29,000  Level Los Angeles Center
02:27PM 37.6900 -113.5575 32° Northeast 443 510 29,000  Level Los Angeles Center
02:28PM 37.8028 -113.4933 24° Northeast 439 505 29,000  Level Salt Lake Center
02:29PM 37.9400 -113.4219 22° Northeast 442 509 29,000  Level Salt Lake Center
02:30PM 38.0531 -113.3600 23° Northeast 442 509 29,000  Level Salt Lake Center
02:31PM 38.1672 -113.2981 23° Northeast 444 511 29,000  Level Salt Lake Center
02:32PM 38.2811 -113.2361 23° Northeast 443 510 29,000  Level Salt Lake Center
02:33PM 38.3958 -113.1728 23° Northeast 448 516 29,000  Level Salt Lake Center
02:34PM 38.5100 -113.1139 22° Northeast 443 510 29,000  Level Salt Lake Center
02:35PM 38.6242 -113.0492 24° Northeast 446 513 29,000  Level Salt Lake Center
02:36PM 38.7617 -112.9758 23° Northeast 446 513 29,000  Level Salt Lake Center
02:37PM 38.8764 -112.9114 24° Northeast 449 517 29,000  Level Salt Lake Center
02:38PM 38.9903 -112.8500 23° Northeast 445 512 29,000  Level Salt Lake Center
02:39PM 39.1044 -112.7861 23° Northeast 448 516 29,000  Level Salt Lake Center
02:40PM 39.2133 -112.7267 23° Northeast 430 495 29,000  Level Salt Lake Center
02:41PM 39.3189 -112.6658 24° Northeast 419 482 29,000  Level Salt Lake Center
02:42PM 39.4328 -112.6025 23° Northeast 414 476 29,000 -720 Level Salt Lake Center
02:43PM 39.5378 -112.5456 23° Northeast 411 473 27,600 -1,800 Descending Salt Lake Center
02:44PM 39.6411 -112.4894 23° Northeast 403 464 25,400 -2,280 Descending Salt Lake Center
02:45PM 39.7653 -112.4181 24° Northeast 407 468 22,900 -2,280 Descending Salt Lake Center
02:46PM 39.8714 -112.3578 24° Northeast 414 476 20,700 -2,220 Descending Salt Lake Center
02:47PM 39.9006 -112.3531 North 411 473 20,100 -2,160 Descending Salt Lake Center
02:48PM 39.9722 -112.2997 30° Northeast 394 453 18,500 -2,220 Descending Salt Lake Center
02:48PM 39.9931 -112.2975 North 396 456 18,100 -1,680 Descending Salt Lake Center
02:49PM 40.0733 -112.2486 25° Northeast 389 448 16,800 -1,620 Descending Salt Lake Center
02:49PM 40.0933 -112.2500 357° North 387 445 16,500 -1,260 Descending Salt Lake Center
02:50PM 40.1769 -112.2147 18° North 384 442 15,500 -1,320 Descending Salt Lake Center
02:50PM 40.1986 -112.2153 359° North 383 441 15,200 -1,140 Descending Salt Lake Center
02:51PM 40.2769 -112.1806 19° North 372 428 14,400 -1,140 Descending Salt Lake Center
02:51PM 40.3011 -112.1781 North 373 429 14,100 -420 Descending Salt Lake Center
02:52PM 40.3750 -112.1467 18° North 364 419 14,000  Descending Salt Lake Center
02:52PM 40.4094 -112.1389 10° North 366 421 14,100 -1,140 Climbing Salt Lake Center
02:53PM 40.5083 -112.1056 14° North 366 421 12,700 -1,380 Descending Salt Lake Center
02:54PM 40.5919 -112.0806 13° North 360 414 11,600 -1,440 Descending Salt Lake Center
02:54PM 40.5969 -112.0844 329° Northwest 347 399 11,400 -540 Descending Salt Lake Center
02:55PM 40.6697 -112.0825 North 271 312 11,100 -480 Descending Salt Lake Center
02:55PM 40.6833 -112.0861 349° North 265 305 10,900  Descending Salt Lake Center
02:56PM 40.7419 -112.0906 357° North 258 297 11,100 60 Climbing Salt Lake Center
02:56PM 40.7469 -112.0931 339° North 259 298 11,000 -120 Descending Salt Lake Center
02:57PM 40.8150 -112.0997 356° North 264 304 11,000 -540 Level Salt Lake Center
02:58PM 40.8881 -112.1064 356° North 261 300 10,000 -1,140 Descending Salt Lake Center
02:59PM 40.9664 -112.0925 North 265 305 8,800 -1,020 Descending Salt Lake Center
02:59PM 40.9606 -112.0961 205° Southwest 259 298 9,000 -840 Climbing Salt Lake Center
03:00PM 40.9842 -112.0069 71° East 256 295 8,000 -900 Descending Salt Lake Center
03:00PM 40.9831 -111.9964 98° East 252 290 8,100 -600 Climbing Salt Lake Center
03:01PM 40.9394 -111.9653 152° Southeast 191 220 7,400 -600 Descending Salt Lake Center
03:01PM 40.9381 -111.9636 138° Southeast 193 222 7,500 -840 Climbing Salt Lake Center
03:02PM 40.8900 -111.9617 178° South 176 203 6,500 -1,080 Descending Salt Lake Center
03:02PM 40.8875 -111.9631 203° Southwest 175 201 6,400 -1,200 Descending Salt Lake Center
03:03PM 40.8469 -111.9628 180° South 154 177 5,300 -1,020 Descending Salt Lake Center
03:04PM 40.8056 -111.9628 180° South 136 157 4,400 -900 Descending Salt Lake Center
03:04PM 40.8106 -111.9622 North 134 154 4,400  Level Salt Lake Center
03:06PM 40.7833 -111.9667 159° South  Level FlightAware Approximate